CPX236 Details

Departure: Washington Dulles International Airport (KIAD)
Arrival: March Air Reserve Base (KRIV)
Route: BUNZZ3 RAMAY Q72 HACKS J149 EMPTY J80 SAAGS J80 MCI J24 SLN J102 LAA J102 GUP J96 PKE J78 TRM ARKOE1


Current Weather Information
KIAD 251052Z 13007KT 10SM BKN065 19/12 A3019 RMK AO2 SLP220 T01890117
KRIV 251058Z AUTO 00000KT 10SM CLR 08/08 A2988 RMK AO2 SLP112 T00790079